Meade, Kansas
Current Conditions -  °F | °C
As of 10:15 AM on Wednesday 28 Jan 2015 (Local Time) from KLBL Reporting Station
Clear Clear  
Wind Chill: 55°   Ceiling: Unl
Heat Index: 55°   Visibility: 10mi
Dew Point: 37°   Wind: 23mph
Humidity: 51%   Direction: 300°WNW
Pressure: 29.99"   Gusts: NA
Location:  37.29°N, 100.34°W
Report Text: KLBL 281615Z AUTO 30020KT 10SM CLR 13/03 A2999 RMK AO1
Loading
Personal Weather Stations






























Interactive Weather Map New forecast layout! Learn more

10-Day Weather Forecast

Advertisements
Track Severe Weather on mobile